»·PEaware :: XACAM KBUR-KLAS

XACAM :: KBUR-KLAS

FLIGHT INFORMATION

Flight Status: Arrived
Operator: Unknown
More flights by this operator :: More flights under this callsign
Pilot: Rafael C. (24230)
Aircraft: BOEING 727-100
(B721)
More flights by this aircraft type
Origin: KBUR Bob Hope-Burbank
United States
Destination: KLAS McCarran Intl
United States
More flights between these airports :: More routes between these airports
Route: +SLAPP1 MISEN KEPEC6
File this flight plan on PilotEdge
Remarks: I5 Rating
Altitude:
(Current/Filed)
25,000ft
Speed:
(Current/Filed)
500kts
Departed: 22-Jul-19 06:18 PM
Arrived: 22-Jul-19 06:59 PM
Distance/Time
Traveled:
194nm/0:40
Distance/Time
To Go:
Arrived

Flight Plot

Page will automatically refresh every two minutes.

Flight plan parsing failed; only flown route is shown


Map Options




Map Legend


Flown Route
Filed Route
Departure Airport
Arrival Airport
Navaid (VOR, NDB)
Fix

Horizontal Profiles

Position Reports

Time Latitude Longitude Heading Altitude Ground
Speed
22-Jul-19 17:53 34.196810 -118.351970 179 704ft 0kts
22-Jul-19 17:54 34.196810 -118.351970 179 704ft 0kts
22-Jul-19 17:55 34.196810 -118.351970 179 704ft 0kts
22-Jul-19 17:56 34.196810 -118.351970 179 704ft 0kts
22-Jul-19 17:57 34.196810 -118.351970 179 704ft 0kts
22-Jul-19 17:58 34.196810 -118.351970 179 704ft 0kts
22-Jul-19 17:59 34.196810 -118.351970 179 704ft 0kts
22-Jul-19 18:00 34.196810 -118.351970 179 704ft 0kts
22-Jul-19 18:01 34.196810 -118.351970 179 704ft 0kts
22-Jul-19 18:02 34.196810 -118.351970 179 704ft 0kts
22-Jul-19 18:03 34.196810 -118.351970 179 704ft 0kts
22-Jul-19 18:04 34.196810 -118.351970 179 704ft 0kts
22-Jul-19 18:05 34.196809 -118.351970 179 704ft 0kts
22-Jul-19 18:06 34.196809 -118.351970 179 704ft 0kts
22-Jul-19 18:07 34.196809 -118.351970 179 704ft 0kts
22-Jul-19 18:08 34.196809 -118.351970 179 704ft 0kts
22-Jul-19 18:09 34.196809 -118.351970 179 704ft 0kts
22-Jul-19 18:10 34.196815 -118.351970 179 704ft 0kts
22-Jul-19 18:11 34.197156 -118.352269 278 705ft 9kts
22-Jul-19 18:12 34.198710 -118.355363 347 715ft 28kts
22-Jul-19 18:13 34.205413 -118.357208 347 740ft 21kts
22-Jul-19 18:14 34.210764 -118.358683 347 767ft 16kts
22-Jul-19 18:15 34.211590 -118.359096 311 771ft 0kts
22-Jul-19 18:16 34.211959 -118.359874 261 773ft 14kts
22-Jul-19 18:17 34.192942 -118.355193 170 1262ft 141kts
22-Jul-19 18:18 34.157043 -118.385434 222 3048ft 216kts
22-Jul-19 18:19 34.114939 -118.444606 259 4095ft 272kts
22-Jul-19 18:20 34.162255 -118.503148 351 8393ft 290kts
22-Jul-19 18:21 34.240659 -118.505819 33 11982ft 305kts
22-Jul-19 18:22 34.313338 -118.447881 35 13869ft 332kts
22-Jul-19 18:23 34.395057 -118.384569 35 15613ft 354kts
22-Jul-19 18:24 34.476445 -118.318413 41 18174ft 353kts
22-Jul-19 18:25 34.554155 -118.241205 42 19030ft 364kts
22-Jul-19 18:26 34.632358 -118.162841 42 19040ft 366kts
22-Jul-19 18:27 34.677245 -118.059083 80 19063ft 354kts
22-Jul-19 18:28 34.693524 -117.939193 88 20634ft 360kts
22-Jul-19 18:29 34.701021 -117.816221 89 23045ft 373kts
22-Jul-19 18:30 34.707492 -117.689179 91 25024ft 379kts
22-Jul-19 18:31 34.712312 -117.557414 90 25078ft 404kts
22-Jul-19 18:32 34.737796 -117.420156 75 25076ft 432kts
22-Jul-19 18:33 34.775391 -117.277789 75 25078ft 451kts
22-Jul-19 18:34 34.814459 -117.129824 75 25077ft 468kts
22-Jul-19 18:35 34.854673 -116.976674 75 25060ft 481kts
22-Jul-19 18:36 34.895524 -116.820215 75 25038ft 491kts
22-Jul-19 18:37 34.953367 -116.668532 58 25041ft 505kts
22-Jul-19 18:38 35.033277 -116.526282 57 25040ft 513kts
22-Jul-19 18:39 35.114543 -116.391081 50 24604ft 467kts
22-Jul-19 18:40 35.196702 -116.285695 48 22165ft 407kts
22-Jul-19 18:41 35.269527 -116.194172 48 20674ft 366kts
22-Jul-19 18:43 35.339506 -116.106048 47 19182ft 357kts
22-Jul-19 18:44 35.407707 -116.019969 47 17734ft 348kts
22-Jul-19 18:45 35.474089 -115.935969 47 16333ft 339kts
22-Jul-19 18:46 35.538755 -115.853935 47 14958ft 331kts
22-Jul-19 18:47 35.601852 -115.773695 47 13614ft 323kts
22-Jul-19 18:48 35.664288 -115.694101 47 13158ft 321kts
22-Jul-19 18:49 35.723625 -115.613594 51 12695ft 314kts
22-Jul-19 18:50 35.779170 -115.530871 51 11404ft 311kts
22-Jul-19 18:51 35.833986 -115.449449 51 10091ft 306kts
22-Jul-19 18:52 35.883954 -115.375900 51 8369ft 271kts
22-Jul-19 18:53 35.941177 -115.326215 11 6533ft 268kts
22-Jul-19 18:54 36.012506 -115.311572 10 5045ft 251kts
22-Jul-19 18:55 36.070245 -115.289450 75 4705ft 208kts
22-Jul-19 18:56 36.073523 -115.231219 91 3726ft 148kts
22-Jul-19 18:57 36.073699 -115.188201 96 2723ft 134kts
22-Jul-19 18:58 36.073620 -115.145753 90 2108ft 84kts
22-Jul-19 18:58 36.074527 -115.134921 60 2073ft 2kts
22-Jul-19 19:00 36.074762 -115.134408 60 2071ft 12kts
22-Jul-19 19:01 36.077537 -115.133810 6 2066ft 19kts
22-Jul-19 19:02 36.080405 -115.134591 271 2063ft 7kts
22-Jul-19 19:02 36.080406 -115.134814 270 2064ft 0kts
22-Jul-19 19:03 36.080406 -115.134814 270 2064ft 0kts
22-Jul-19 19:05 36.080406 -115.134814 270 2064ft 0kts

Navigation Log

Ident Type
Flight plan parsing failed, navigation log unavailable